Afton, New York
Current Conditions -  °F | °C
As of 12:53 PM on Sunday 21 Dec 2014 (Local Time) from KBGM Reporting Station
Overcast Overcast  
Wind Chill: -3°   Ceiling: 1700
Heat Index: -3°   Visibility: 10mi
Dew Point: -7°   Wind: 3mph
Humidity: 75%   Direction: 60°ENE
Pressure: 30.24"   Gusts: NA
Location:  42.23°N, 75.53°W
Report Text: KBGM 211753Z 06003KT 10SM OVC017 M03/M07 A3024 RMK AO2 SLP261 T10281067 11028 21044 58009
Loading
Personal Weather Stations






























Interactive Weather Map New forecast layout! Learn more

10-Day Weather Forecast

Advertisements
Track Severe Weather on mobile